sensor_id;sensor_type;location;lat;lon;timestamp;pressure;altitude;pressure_sealevel;temperature;humidity
56668;BME280;42542;48.360;10.958;2022-12-11T00:02:23;95339.50;;;-0.99;90.81
56668;BME280;42542;48.360;10.958;2022-12-11T00:05:24;95333.31;;;-0.98;91.46
56668;BME280;42542;48.360;10.958;2022-12-11T00:08:26;95339.41;;;-0.98;91.27
56668;BME280;42542;48.360;10.958;2022-12-11T00:11:28;95337.63;;;-0.97;91.57
56668;BME280;42542;48.360;10.958;2022-12-11T00:14:30;95333.56;;;-1.01;91.41
56668;BME280;42542;48.360;10.958;2022-12-11T00:17:32;95335.44;;;-1.03;91.10
56668;BME280;42542;48.360;10.958;2022-12-11T00:20:34;95341.84;;;-1.07;91.20
56668;BME280;42542;48.360;10.958;2022-12-11T00:23:37;95340.06;;;-1.07;91.02
56668;BME280;42542;48.360;10.958;2022-12-11T00:26:39;95336.50;;;-1.06;91.09
56668;BME280;42542;48.360;10.958;2022-12-11T00:29:40;95346.16;;;-1.06;91.35
56668;BME280;42542;48.360;10.958;2022-12-11T00:32:42;95337.44;;;-1.07;90.95
56668;BME280;42542;48.360;10.958;2022-12-11T00:35:45;95341.84;;;-1.07;91.00
56668;BME280;42542;48.360;10.958;2022-12-11T00:38:48;95343.78;;;-1.09;90.80
56668;BME280;42542;48.360;10.958;2022-12-11T00:41:49;95347.25;;;-1.09;90.85
56668;BME280;42542;48.360;10.958;2022-12-11T00:44:51;95333.50;;;-1.12;91.18
56668;BME280;42542;48.360;10.958;2022-12-11T00:47:52;95335.91;;;-1.09;91.43
56668;BME280;42542;48.360;10.958;2022-12-11T00:50:54;95337.81;;;-1.11;90.97
56668;BME280;42542;48.360;10.958;2022-12-11T00:53:56;95345.78;;;-1.13;91.30
56668;BME280;42542;48.360;10.958;2022-12-11T00:56:57;95349.34;;;-1.14;90.85
56668;BME280;42542;48.360;10.958;2022-12-11T00:59:59;95340.63;;;-1.14;91.28
56668;BME280;42542;48.360;10.958;2022-12-11T01:03:01;95357.00;;;-1.11;91.94
56668;BME280;42542;48.360;10.958;2022-12-11T01:06:03;95351.75;;;-1.11;91.99
56668;BME280;42542;48.360;10.958;2022-12-11T01:09:05;95355.22;;;-1.10;91.93
56668;BME280;42542;48.360;10.958;2022-12-11T01:12:26;95358.56;;;-1.08;91.55
56668;BME280;42542;48.360;10.958;2022-12-11T01:15:34;95350.91;;;-1.11;91.27
56668;BME280;42542;48.360;10.958;2022-12-11T01:18:42;95352.91;;;-1.15;91.32
56668;BME280;42542;48.360;10.958;2022-12-11T01:21:43;95356.50;;;-1.16;91.83
56668;BME280;42542;48.360;10.958;2022-12-11T01:24:45;95349.47;;;-1.15;91.40
56668;BME280;42542;48.360;10.958;2022-12-11T01:27:49;95361.75;;;-1.16;91.37
56668;BME280;42542;48.360;10.958;2022-12-11T01:30:51;95361.97;;;-1.19;91.60
56668;BME280;42542;48.360;10.958;2022-12-11T01:33:54;95368.25;;;-1.22;91.92
56668;BME280;42542;48.360;10.958;2022-12-11T01:36:55;95370.38;;;-1.27;91.94
56668;BME280;42542;48.360;10.958;2022-12-11T01:39:57;95371.22;;;-1.26;91.69
56668;BME280;42542;48.360;10.958;2022-12-11T01:42:59;95368.59;;;-1.26;92.22
56668;BME280;42542;48.360;10.958;2022-12-11T01:46:00;95364.41;;;-1.29;91.85
56668;BME280;42542;48.360;10.958;2022-12-11T01:49:13;95369.06;;;-1.32;92.30
56668;BME280;42542;48.360;10.958;2022-12-11T01:52:18;95382.16;;;-1.32;92.13
56668;BME280;42542;48.360;10.958;2022-12-11T01:55:21;95371.78;;;-1.34;91.88
56668;BME280;42542;48.360;10.958;2022-12-11T01:58:27;95367.38;;;-1.33;92.53
56668;BME280;42542;48.360;10.958;2022-12-11T02:01:34;95364.00;;;-1.35;92.05
56668;BME280;42542;48.360;10.958;2022-12-11T02:04:37;95366.63;;;-1.35;91.92
56668;BME280;42542;48.360;10.958;2022-12-11T02:07:45;95356.72;;;-1.43;91.73
56668;BME280;42542;48.360;10.958;2022-12-11T02:14:15;95368.09;;;-1.31;91.64
56668;BME280;42542;48.360;10.958;2022-12-11T02:17:22;95366.19;;;-1.29;91.98
56668;BME280;42542;48.360;10.958;2022-12-11T02:20:35;95366.19;;;-1.29;91.81
56668;BME280;42542;48.360;10.958;2022-12-11T02:27:13;95370.50;;;-1.28;91.76
56668;BME280;42542;48.360;10.958;2022-12-11T02:30:18;95370.38;;;-1.27;91.66
56668;BME280;42542;48.360;10.958;2022-12-11T02:33:27;95363.47;;;-1.28;91.77
56668;BME280;42542;48.360;10.958;2022-12-11T02:36:34;95364.41;;;-1.29;91.73
56668;BME280;42542;48.360;10.958;2022-12-11T02:39:37;95370.38;;;-1.27;91.84
56668;BME280;42542;48.360;10.958;2022-12-11T02:42:42;95367.75;;;-1.27;92.40
56668;BME280;42542;48.360;10.958;2022-12-11T02:45:45;95373.84;;;-1.26;91.87
56668;BME280;42542;48.360;10.958;2022-12-11T02:48:48;95364.31;;;-1.27;91.99
56668;BME280;42542;48.360;10.958;2022-12-11T02:51:53;95365.97;;;-1.26;92.21
56668;BME280;42542;48.360;10.958;2022-12-11T02:54:58;95364.31;;;-1.27;92.24
56668;BME280;42542;48.360;10.958;2022-12-11T02:58:05;95365.78;;;-1.23;92.32
56668;BME280;42542;48.360;10.958;2022-12-11T03:01:09;95364.94;;;-1.24;91.92
56668;BME280;42542;48.360;10.958;2022-12-11T03:04:11;95353.81;;;-1.27;91.90
56668;BME280;42542;48.360;10.958;2022-12-11T03:07:26;95362.41;;;-1.25;91.70
56668;BME280;42542;48.360;10.958;2022-12-11T03:10:28;95366.81;;;-1.26;91.76
56668;BME280;42542;48.360;10.958;2022-12-11T03:13:29;95364.94;;;-1.24;92.45
56668;BME280;42542;48.360;10.958;2022-12-11T03:16:34;95375.06;;;-1.19;92.22
56668;BME280;42542;48.360;10.958;2022-12-11T03:19:47;95370.88;;;-1.22;91.57
56668;BME280;42542;48.360;10.958;2022-12-11T03:22:59;95367.31;;;-1.21;91.88
56668;BME280;42542;48.360;10.958;2022-12-11T03:26:05;95366.38;;;-1.20;92.49
56668;BME280;42542;48.360;10.958;2022-12-11T03:29:16;95365.53;;;-1.20;92.12
56668;BME280;42542;48.360;10.958;2022-12-11T03:32:23;95362.06;;;-1.21;91.83
56668;BME280;42542;48.360;10.958;2022-12-11T03:35:41;95369.22;;;-1.23;92.27
56668;BME280;42542;48.360;10.958;2022-12-11T03:39:12;95363.16;;;-1.23;92.03
56668;BME280;42542;48.360;10.958;2022-12-11T03:42:16;95365.78;;;-1.23;91.89
56668;BME280;42542;48.360;10.958;2022-12-11T03:45:20;95363.84;;;-1.21;91.37
56668;BME280;42542;48.360;10.958;2022-12-11T03:48:27;95375.28;;;-1.22;91.74
56668;BME280;42542;48.360;10.958;2022-12-11T03:51:31;95375.91;;;-1.19;91.73
56668;BME280;42542;48.360;10.958;2022-12-11T03:54:34;95375.91;;;-1.19;91.36
56668;BME280;42542;48.360;10.958;2022-12-11T03:57:37;95382.00;;;-1.18;90.93
56668;BME280;42542;48.360;10.958;2022-12-11T04:00:38;95387.25;;;-1.18;91.09
56668;BME280;42542;48.360;10.958;2022-12-11T04:03:40;95380.09;;;-1.16;90.90
56668;BME280;42542;48.360;10.958;2022-12-11T04:06:41;95383.69;;;-1.17;89.65
56668;BME280;42542;48.360;10.958;2022-12-11T04:09:43;95375.91;;;-1.19;89.88
56668;BME280;42542;48.360;10.958;2022-12-11T04:12:44;95377.59;;;-1.17;89.58
56668;BME280;42542;48.360;10.958;2022-12-11T04:15:46;95377.69;;;-1.19;89.41
56668;BME280;42542;48.360;10.958;2022-12-11T04:18:48;95377.59;;;-1.17;89.14
56668;BME280;42542;48.360;10.958;2022-12-11T04:22:11;95374.97;;;-1.17;89.33
56668;BME280;42542;48.360;10.958;2022-12-11T04:25:32;95368.03;;;-1.19;89.65
56668;BME280;42542;48.360;10.958;2022-12-11T04:28:34;95373.19;;;-1.17;89.12
56668;BME280;42542;48.360;10.958;2022-12-11T04:31:36;95373.19;;;-1.17;89.13
56668;BME280;42542;48.360;10.958;2022-12-11T04:34:37;95375.69;;;-1.15;89.39
56668;BME280;42542;48.360;10.958;2022-12-11T04:37:41;95373.19;;;-1.17;88.27
56668;BME280;42542;48.360;10.958;2022-12-11T04:40:43;95370.66;;;-1.19;88.04
56668;BME280;42542;48.360;10.958;2022-12-11T04:43:44;95377.81;;;-1.21;87.47
56668;BME280;42542;48.360;10.958;2022-12-11T04:46:46;95372.78;;;-1.24;87.13
56668;BME280;42542;48.360;10.958;2022-12-11T04:49:48;95367.75;;;-1.27;86.47
56668;BME280;42542;48.360;10.958;2022-12-11T04:52:49;95370.50;;;-1.28;87.09
56668;BME280;42542;48.360;10.958;2022-12-11T04:55:51;95369.88;;;-1.32;87.08
56668;BME280;42542;48.360;10.958;2022-12-11T04:58:52;95365.69;;;-1.34;87.60
56668;BME280;42542;48.360;10.958;2022-12-11T05:01:54;95375.03;;;-1.30;87.88
56668;BME280;42542;48.360;10.958;2022-12-11T05:04:56;95366.19;;;-1.29;88.31
56668;BME280;42542;48.360;10.958;2022-12-11T05:07:57;95367.03;;;-1.29;87.83
56668;BME280;42542;48.360;10.958;2022-12-11T05:11:01;95362.75;;;-1.30;87.70
56668;BME280;42542;48.360;10.958;2022-12-11T05:14:04;95355.09;;;-1.33;88.34
56668;BME280;42542;48.360;10.958;2022-12-11T05:17:05;95364.41;;;-1.29;88.51
56668;BME280;42542;48.360;10.958;2022-12-11T05:20:07;95362.63;;;-1.28;88.20
56668;BME280;42542;48.360;10.958;2022-12-11T05:23:10;95360.84;;;-1.28;88.68
56668;BME280;42542;48.360;10.958;2022-12-11T05:26:14;95353.81;;;-1.27;88.45
56668;BME280;42542;48.360;10.958;2022-12-11T05:29:17;95355.50;;;-1.26;89.19
56668;BME280;42542;48.360;10.958;2022-12-11T05:32:18;95354.66;;;-1.27;88.73
56668;BME280;42542;48.360;10.958;2022-12-11T05:35:20;95361.56;;;-1.26;88.80
56668;BME280;42542;48.360;10.958;2022-12-11T05:38:23;95358.97;;;-1.26;89.05
56668;BME280;42542;48.360;10.958;2022-12-11T05:41:28;95355.38;;;-1.25;89.43
56668;BME280;42542;48.360;10.958;2022-12-11T05:44:30;95364.09;;;-1.24;89.40
56668;BME280;42542;48.360;10.958;2022-12-11T05:47:31;95361.69;;;-1.27;88.51
56668;BME280;42542;48.360;10.958;2022-12-11T05:50:33;95360.00;;;-1.28;89.19
56668;BME280;42542;48.360;10.958;2022-12-11T05:53:36;95357.28;;;-1.27;89.33
56668;BME280;42542;48.360;10.958;2022-12-11T05:56:37;95351.66;;;-1.33;89.20
56668;BME280;42542;48.360;10.958;2022-12-11T05:59:40;95348.41;;;-1.37;89.05
56668;BME280;42542;48.360;10.958;2022-12-11T06:02:41;95347.59;;;-1.37;89.31
56668;BME280;42542;48.360;10.958;2022-12-11T06:05:43;95344.13;;;-1.38;89.13
56668;BME280;42542;48.360;10.958;2022-12-11T06:08:48;95342.44;;;-1.39;89.22
56668;BME280;42542;48.360;10.958;2022-12-11T06:11:50;95336.56;;;-1.42;89.19
56668;BME280;42542;48.360;10.958;2022-12-11T06:14:52;95342.44;;;-1.39;89.49
56668;BME280;42542;48.360;10.958;2022-12-11T06:17:54;95337.31;;;-1.40;89.50
56668;BME280;42542;48.360;10.958;2022-12-11T06:20:55;95324.09;;;-1.39;89.61
56668;BME280;42542;48.360;10.958;2022-12-11T06:23:59;95311.94;;;-1.40;89.94
56668;BME280;42542;48.360;10.958;2022-12-11T06:27:01;95317.19;;;-1.40;89.51
56668;BME280;42542;48.360;10.958;2022-12-11T06:30:03;95327.88;;;-1.43;89.91
56668;BME280;42542;48.360;10.958;2022-12-11T06:33:05;95326.19;;;-1.44;89.47
56668;BME280;42542;48.360;10.958;2022-12-11T06:36:14;95328.31;;;-1.49;89.56
56668;BME280;42542;48.360;10.958;2022-12-11T06:39:16;95344.16;;;-1.50;89.46
56668;BME280;42542;48.360;10.958;2022-12-11T06:42:18;95344.50;;;-1.55;89.75
56668;BME280;42542;48.360;10.958;2022-12-11T06:45:19;95344.00;;;-1.60;89.07
56668;BME280;42542;48.360;10.958;2022-12-11T06:48:21;95349.34;;;-1.62;89.39
56668;BME280;42542;48.360;10.958;2022-12-11T06:51:23;95345.97;;;-1.64;89.84
56668;BME280;42542;48.360;10.958;2022-12-11T06:54:25;95346.31;;;-1.68;90.17
56668;BME280;42542;48.360;10.958;2022-12-11T06:57:27;95346.44;;;-1.70;90.17
56668;BME280;42542;48.360;10.958;2022-12-11T07:00:29;95351.66;;;-1.70;89.98
56668;BME280;42542;48.360;10.958;2022-12-11T07:03:31;95344.84;;;-1.72;89.76
56668;BME280;42542;48.360;10.958;2022-12-11T07:06:34;95338.06;;;-1.75;90.17
56668;BME280;42542;48.360;10.958;2022-12-11T07:09:38;95342.91;;;-1.81;90.08
56668;BME280;42542;48.360;10.958;2022-12-11T07:12:40;95351.06;;;-1.86;90.15
56668;BME280;42542;48.360;10.958;2022-12-11T07:15:41;95349.53;;;-1.88;90.43
56668;BME280;42542;48.360;10.958;2022-12-11T07:18:46;95344.00;;;-1.97;90.04
56668;BME280;42542;48.360;10.958;2022-12-11T07:21:48;95352.59;;;-1.94;90.62
56668;BME280;42542;48.360;10.958;2022-12-11T07:24:50;95359.69;;;-1.97;90.29
56668;BME280;42542;48.360;10.958;2022-12-11T07:27:51;95354.56;;;-1.98;90.58
56668;BME280;42542;48.360;10.958;2022-12-11T07:31:04;95359.91;;;-2.00;90.63
56668;BME280;42542;48.360;10.958;2022-12-11T07:34:06;95359.16;;;-2.02;90.71
56668;BME280;42542;48.360;10.958;2022-12-11T07:37:07;95355.84;;;-2.04;90.54
56668;BME280;42542;48.360;10.958;2022-12-11T07:40:09;95367.44;;;-2.08;90.50
56668;BME280;42542;48.360;10.958;2022-12-11T07:43:11;95371.00;;;-2.09;90.90
56668;BME280;42542;48.360;10.958;2022-12-11T07:46:20;95366.63;;;-2.08;91.37
56668;BME280;42542;48.360;10.958;2022-12-11T07:49:21;95367.69;;;-2.11;91.12
56668;BME280;42542;48.360;10.958;2022-12-11T07:52:23;95367.03;;;-2.14;90.33
56668;BME280;42542;48.360;10.958;2022-12-11T07:55:25;95364.41;;;-2.14;90.17
56668;BME280;42542;48.360;10.958;2022-12-11T07:58:26;95366.44;;;-2.18;90.17
56668;BME280;42542;48.360;10.958;2022-12-11T08:01:30;95362.97;;;-2.18;89.96
56668;BME280;42542;48.360;10.958;2022-12-11T08:04:32;95363.06;;;-2.20;90.14
56668;BME280;42542;48.360;10.958;2022-12-11T08:07:34;95380.66;;;-2.22;89.62
56668;BME280;42542;48.360;10.958;2022-12-11T08:10:36;95379.81;;;-2.22;90.05
56668;BME280;42542;48.360;10.958;2022-12-11T08:13:38;95376.34;;;-2.23;89.97
56668;BME280;42542;48.360;10.958;2022-12-11T08:16:40;95374.81;;;-2.25;89.98
56668;BME280;42542;48.360;10.958;2022-12-11T08:19:44;95382.97;;;-2.30;89.22
56668;BME280;42542;48.360;10.958;2022-12-11T08:22:46;95382.13;;;-2.30;89.74
56668;BME280;42542;48.360;10.958;2022-12-11T08:25:47;95380.47;;;-2.31;90.12
56668;BME280;42542;48.360;10.958;2022-12-11T08:28:49;95379.94;;;-2.37;89.45
56668;BME280;42542;48.360;10.958;2022-12-11T08:31:51;95384.97;;;-2.33;89.78
56668;BME280;42542;48.360;10.958;2022-12-11T08:34:53;95387.47;;;-2.32;89.74
56668;BME280;42542;48.360;10.958;2022-12-11T08:37:54;95382.13;;;-2.30;90.28
56668;BME280;42542;48.360;10.958;2022-12-11T08:40:56;95386.53;;;-2.31;90.34
56668;BME280;42542;48.360;10.958;2022-12-11T08:43:58;95387.25;;;-2.29;89.86
56668;BME280;42542;48.360;10.958;2022-12-11T08:47:00;95391.56;;;-2.28;89.54
56668;BME280;42542;48.360;10.958;2022-12-11T08:50:03;95395.09;;;-2.29;88.95
56668;BME280;42542;48.360;10.958;2022-12-11T08:53:04;95402.13;;;-2.29;88.88
56668;BME280;42542;48.360;10.958;2022-12-11T08:56:09;95401.41;;;-2.31;88.46
56668;BME280;42542;48.360;10.958;2022-12-11T08:59:11;95388.41;;;-2.33;88.39
56668;BME280;42542;48.360;10.958;2022-12-11T09:02:12;95388.50;;;-2.34;87.77
56668;BME280;42542;48.360;10.958;2022-12-11T09:05:14;95397.22;;;-2.34;87.73
56668;BME280;42542;48.360;10.958;2022-12-11T09:08:16;95400.56;;;-2.32;88.34
56668;BME280;42542;48.360;10.958;2022-12-11T09:11:23;95399.72;;;-2.32;88.16
56668;BME280;42542;48.360;10.958;2022-12-11T09:14:26;95395.44;;;-2.33;87.83
56668;BME280;42542;48.360;10.958;2022-12-11T09:17:28;95402.34;;;-2.32;87.70
56668;BME280;42542;48.360;10.958;2022-12-11T09:20:29;95390.94;;;-2.31;88.07
56668;BME280;42542;48.360;10.958;2022-12-11T09:23:31;95395.00;;;-2.27;87.77
56668;BME280;42542;48.360;10.958;2022-12-11T09:26:33;95398.38;;;-2.25;87.34
56668;BME280;42542;48.360;10.958;2022-12-11T09:29:35;95387.06;;;-2.26;87.25
56668;BME280;42542;48.360;10.958;2022-12-11T09:32:36;95392.06;;;-2.23;87.39
56668;BME280;42542;48.360;10.958;2022-12-11T09:35:38;95386.97;;;-2.24;86.98
56668;BME280;42542;48.360;10.958;2022-12-11T09:38:40;95376.59;;;-2.26;86.88
56668;BME280;42542;48.360;10.958;2022-12-11T09:41:48;95388.31;;;-2.19;86.55
56668;BME280;42542;48.360;10.958;2022-12-11T09:44:56;95373.53;;;-2.20;86.81
56668;BME280;42542;48.360;10.958;2022-12-11T09:48:00;95377.41;;;-2.13;86.49
56668;BME280;42542;48.360;10.958;2022-12-11T09:51:12;95377.41;;;-2.13;86.12
56668;BME280;42542;48.360;10.958;2022-12-11T09:54:16;95373.03;;;-2.12;86.25
56668;BME280;42542;48.360;10.958;2022-12-11T10:01:12;95380.88;;;-2.12;85.66
56668;BME280;42542;48.360;10.958;2022-12-11T10:04:55;95377.22;;;-2.10;85.66
56668;BME280;42542;48.360;10.958;2022-12-11T10:08:16;95373.53;;;-2.07;86.11
56668;BME280;42542;48.360;10.958;2022-12-11T10:11:40;95363.78;;;-2.05;86.02
56668;BME280;42542;48.360;10.958;2022-12-11T10:15:04;95360.00;;;-2.01;85.79
56668;BME280;42542;48.360;10.958;2022-12-11T10:18:16;95363.06;;;-1.94;85.77
56668;BME280;42542;48.360;10.958;2022-12-11T10:21:18;95351.59;;;-1.93;85.60
56668;BME280;42542;48.360;10.958;2022-12-11T10:24:39;95349.63;;;-1.90;85.03
56668;BME280;42542;48.360;10.958;2022-12-11T10:28:14;95345.72;;;-1.84;85.30
56668;BME280;42542;48.360;10.958;2022-12-11T10:34:36;95340.50;;;-1.84;84.36
56668;BME280;42542;48.360;10.958;2022-12-11T10:37:40;95333.56;;;-1.85;84.47
56668;BME280;42542;48.360;10.958;2022-12-11T10:40:45;95336.84;;;-1.82;84.61
56668;BME280;42542;48.360;10.958;2022-12-11T10:43:48;95332.53;;;-1.83;84.52
56668;BME280;42542;48.360;10.958;2022-12-11T10:47:14;95332.44;;;-1.81;84.25
56668;BME280;42542;48.360;10.958;2022-12-11T10:50:24;95326.97;;;-1.78;83.78
56668;BME280;42542;48.360;10.958;2022-12-11T10:53:27;95303.94;;;-1.86;84.07
56668;BME280;42542;48.360;10.958;2022-12-11T10:56:32;95322.13;;;-1.72;84.06
56668;BME280;42542;48.360;10.958;2022-12-11T10:59:43;95323.59;;;-1.68;83.45
56668;BME280;42542;48.360;10.958;2022-12-11T11:02:45;95311.94;;;-1.64;82.93
56668;BME280;42542;48.360;10.958;2022-12-11T11:05:47;95298.38;;;-1.58;81.81
56668;BME280;42542;48.360;10.958;2022-12-11T11:08:53;95293.66;;;-1.52;82.31
56668;BME280;42542;48.360;10.958;2022-12-11T11:11:55;95286.28;;;-1.47;82.10
56668;BME280;42542;48.360;10.958;2022-12-11T11:15:02;95284.16;;;-1.42;81.99
56668;BME280;42542;48.360;10.958;2022-12-11T11:18:18;95286.47;;;-1.38;81.08
56668;BME280;42542;48.360;10.958;2022-12-11T11:21:24;95286.94;;;-1.33;81.26
56668;BME280;42542;48.360;10.958;2022-12-11T11:24:32;95276.84;;;-1.26;81.71
56668;BME280;42542;48.360;10.958;2022-12-11T11:31:07;95264.69;;;-1.27;79.70
56668;BME280;42542;48.360;10.958;2022-12-11T11:34:18;95265.53;;;-1.27;80.10
56668;BME280;42542;48.360;10.958;2022-12-11T11:37:25;95266.34;;;-1.26;79.33
56668;BME280;42542;48.360;10.958;2022-12-11T11:40:36;95269.47;;;-1.21;80.07
56668;BME280;42542;48.360;10.958;2022-12-11T11:43:45;95265.06;;;-1.21;80.09
56668;BME280;42542;48.360;10.958;2022-12-11T11:46:54;95266.63;;;-1.18;80.09
56668;BME280;42542;48.360;10.958;2022-12-11T11:50:18;95270.94;;;-1.17;79.98
56668;BME280;42542;48.360;10.958;2022-12-11T11:53:27;95265.56;;;-1.15;80.27
56668;BME280;42542;48.360;10.958;2022-12-11T11:56:34;95267.13;;;-1.13;80.81
56668;BME280;42542;48.360;10.958;2022-12-11T11:59:45;95261.03;;;-1.13;80.24
56668;BME280;42542;48.360;10.958;2022-12-11T12:02:53;95262.81;;;-1.14;80.22
56668;BME280;42542;48.360;10.958;2022-12-11T12:15:59;95252.59;;;-1.06;81.35
56668;BME280;42542;48.360;10.958;2022-12-11T12:22:39;95235.81;;;-1.03;80.87
56668;BME280;42542;48.360;10.958;2022-12-11T12:26:04;95233.66;;;-0.98;81.75
56668;BME280;42542;48.360;10.958;2022-12-11T12:29:28;95242.97;;;-0.94;81.52
56668;BME280;42542;48.360;10.958;2022-12-11T12:39:23;95241.06;;;-0.92;81.08
56668;BME280;42542;48.360;10.958;2022-12-11T12:45:51;95241.06;;;-0.92;81.03
56668;BME280;42542;48.360;10.958;2022-12-11T12:49:00;95239.25;;;-0.92;81.76
56668;BME280;42542;48.360;10.958;2022-12-11T12:52:12;95237.59;;;-0.93;80.44
56668;BME280;42542;48.360;10.958;2022-12-11T12:55:25;95234.13;;;-0.93;80.47
56668;BME280;42542;48.360;10.958;2022-12-11T13:01:46;95215.41;;;-1.00;80.74
56668;BME280;42542;48.360;10.958;2022-12-11T13:05:04;95241.88;;;-0.92;80.94
56668;BME280;42542;48.360;10.958;2022-12-11T13:08:07;95242.00;;;-0.93;80.99
56668;BME280;42542;48.360;10.958;2022-12-11T13:11:14;95238.44;;;-0.92;81.07
56668;BME280;42542;48.360;10.958;2022-12-11T13:20:23;95242.25;;;-0.85;82.22
56668;BME280;42542;48.360;10.958;2022-12-11T13:23:30;95243.81;;;-0.83;81.84
56668;BME280;42542;48.360;10.958;2022-12-11T13:26:32;95245.81;;;-0.86;80.57
56668;BME280;42542;48.360;10.958;2022-12-11T13:29:39;95240.34;;;-0.94;80.27
56668;BME280;42542;48.360;10.958;2022-12-11T13:32:50;95238.44;;;-0.92;80.74
56668;BME280;42542;48.360;10.958;2022-12-11T13:39:28;95250.72;;;-0.93;79.93
56668;BME280;42542;48.360;10.958;2022-12-11T13:42:33;95250.84;;;-0.94;79.68
56668;BME280;42542;48.360;10.958;2022-12-11T13:45:46;95246.66;;;-0.97;80.09
56668;BME280;42542;48.360;10.958;2022-12-11T13:48:51;95249.63;;;-1.01;79.73
56668;BME280;42542;48.360;10.958;2022-12-11T13:51:58;95247.81;;;-1.01;80.26
56668;BME280;42542;48.360;10.958;2022-12-11T13:55:00;95247.13;;;-1.03;79.90
56668;BME280;42542;48.360;10.958;2022-12-11T13:58:02;95237.34;;;-1.01;80.24
56668;BME280;42542;48.360;10.958;2022-12-11T14:01:14;95242.84;;;-1.04;79.99
56668;BME280;42542;48.360;10.958;2022-12-11T14:04:19;95237.47;;;-1.02;79.43
56668;BME280;42542;48.360;10.958;2022-12-11T14:07:26;95244.50;;;-1.03;80.06
56668;BME280;42542;48.360;10.958;2022-12-11T14:10:30;95237.69;;;-1.05;79.30
56668;BME280;42542;48.360;10.958;2022-12-11T14:13:38;95244.50;;;-1.03;79.84
56668;BME280;42542;48.360;10.958;2022-12-11T14:16:40;95240.41;;;-1.07;79.48
56668;BME280;42542;48.360;10.958;2022-12-11T14:19:46;95246.50;;;-1.06;79.56
56668;BME280;42542;48.360;10.958;2022-12-11T14:22:49;95240.41;;;-1.07;79.98
56668;BME280;42542;48.360;10.958;2022-12-11T14:25:59;95234.34;;;-1.07;80.21
56668;BME280;42542;48.360;10.958;2022-12-11T14:29:01;95234.59;;;-1.10;79.53
56668;BME280;42542;48.360;10.958;2022-12-11T14:32:05;95242.34;;;-1.09;79.69
56668;BME280;42542;48.360;10.958;2022-12-11T14:35:24;95234.22;;;-1.17;79.67
56668;BME280;42542;48.360;10.958;2022-12-11T14:38:36;95245.19;;;-1.12;79.59
56668;BME280;42542;48.360;10.958;2022-12-11T14:41:51;95245.53;;;-1.16;79.97
56668;BME280;42542;48.360;10.958;2022-12-11T14:45:46;95246.13;;;-1.13;79.86
56668;BME280;42542;48.360;10.958;2022-12-11T14:48:33;95252.69;;;-1.19;79.65
56668;BME280;42542;48.360;10.958;2022-12-11T14:51:39;95258.75;;;-1.18;80.31
56668;BME280;42542;48.360;10.958;2022-12-11T14:54:45;95250.91;;;-1.18;80.48
56668;BME280;42542;48.360;10.958;2022-12-11T14:58:03;95251.38;;;-1.24;80.36
56668;BME280;42542;48.360;10.958;2022-12-11T15:01:26;95261.00;;;-1.25;80.93
56668;BME280;42542;48.360;10.958;2022-12-11T15:04:30;95251.56;;;-1.27;81.31
56668;BME280;42542;48.360;10.958;2022-12-11T15:07:33;95254.31;;;-1.29;81.35
56668;BME280;42542;48.360;10.958;2022-12-11T15:10:37;95261.34;;;-1.29;80.93
56668;BME280;42542;48.360;10.958;2022-12-11T15:13:56;95262.16;;;-1.29;81.05
56668;BME280;42542;48.360;10.958;2022-12-11T15:16:59;95264.94;;;-1.30;81.44
56668;BME280;42542;48.360;10.958;2022-12-11T15:20:20;95267.88;;;-1.35;81.90
56668;BME280;42542;48.360;10.958;2022-12-11T15:23:22;95255.84;;;-1.37;81.92
56668;BME280;42542;48.360;10.958;2022-12-11T15:26:40;95251.66;;;-1.40;81.77
56668;BME280;42542;48.360;10.958;2022-12-11T15:29:44;95260.47;;;-1.41;81.44
56668;BME280;42542;48.360;10.958;2022-12-11T15:32:47;95243.72;;;-1.51;81.99
56668;BME280;42542;48.360;10.958;2022-12-11T15:36:05;95260.56;;;-1.42;82.04
56668;BME280;42542;48.360;10.958;2022-12-11T15:39:07;95253.91;;;-1.46;82.77
56668;BME280;42542;48.360;10.958;2022-12-11T15:42:12;95254.63;;;-1.44;82.81
56668;BME280;42542;48.360;10.958;2022-12-11T15:45:20;95256.41;;;-1.45;82.88
56668;BME280;42542;48.360;10.958;2022-12-11T15:48:23;95260.91;;;-1.47;83.10
56668;BME280;42542;48.360;10.958;2022-12-11T15:51:24;95265.22;;;-1.46;82.88
56668;BME280;42542;48.360;10.958;2022-12-11T15:54:27;95271.28;;;-1.45;82.89
56668;BME280;42542;48.360;10.958;2022-12-11T15:57:29;95269.63;;;-1.46;83.69
56668;BME280;42542;48.360;10.958;2022-12-11T16:00:31;95271.41;;;-1.47;83.95
56668;BME280;42542;48.360;10.958;2022-12-11T16:03:32;95274.75;;;-1.45;83.58
56668;BME280;42542;48.360;10.958;2022-12-11T16:06:34;95273.19;;;-1.47;83.52
56668;BME280;42542;48.360;10.958;2022-12-11T16:09:36;95289.00;;;-1.49;83.58
56668;BME280;42542;48.360;10.958;2022-12-11T16:12:38;95279.47;;;-1.50;83.60
56668;BME280;42542;48.360;10.958;2022-12-11T16:15:46;95284.84;;;-1.51;83.07
56668;BME280;42542;48.360;10.958;2022-12-11T16:18:48;95289.47;;;-1.55;83.23
56668;BME280;42542;48.360;10.958;2022-12-11T16:21:51;95276.72;;;-1.60;83.25
56668;BME280;42542;48.360;10.958;2022-12-11T16:24:53;95298.91;;;-1.52;83.60
56668;BME280;42542;48.360;10.958;2022-12-11T16:27:56;95289.38;;;-1.53;83.82
56668;BME280;42542;48.360;10.958;2022-12-11T16:30:58;95293.66;;;-1.52;83.62
56668;BME280;42542;48.360;10.958;2022-12-11T16:34:00;95284.22;;;-1.55;83.68
56668;BME280;42542;48.360;10.958;2022-12-11T16:37:02;95284.22;;;-1.55;83.48
56668;BME280;42542;48.360;10.958;2022-12-11T16:40:04;95295.66;;;-1.56;83.20
56668;BME280;42542;48.360;10.958;2022-12-11T16:43:06;95286.13;;;-1.57;83.58
56668;BME280;42542;48.360;10.958;2022-12-11T16:46:08;95288.97;;;-1.60;83.21
56668;BME280;42542;48.360;10.958;2022-12-11T16:49:10;95287.31;;;-1.61;82.88
56668;BME280;42542;48.360;10.958;2022-12-11T16:52:12;95287.19;;;-1.60;82.99
56668;BME280;42542;48.360;10.958;2022-12-11T16:55:20;95286.56;;;-1.63;82.81
56668;BME280;42542;48.360;10.958;2022-12-11T16:58:22;95290.03;;;-1.63;82.94
56668;BME280;42542;48.360;10.958;2022-12-11T17:01:24;95300.50;;;-1.63;83.10
56668;BME280;42542;48.360;10.958;2022-12-11T17:04:26;95292.63;;;-1.63;83.24